sensor_id;sensor_type;location;lat;lon;timestamp;temperature;humidity
3678;DHT22;1855;50.934;6.958;2022-10-16T00:01:36;14.60;92.40
3678;DHT22;1855;50.934;6.958;2022-10-16T00:04:04;14.60;92.30
3678;DHT22;1855;50.934;6.958;2022-10-16T00:06:31;14.70;92.10
3678;DHT22;1855;50.934;6.958;2022-10-16T00:08:59;14.60;92.10
3678;DHT22;1855;50.934;6.958;2022-10-16T00:11:28;14.60;92.10
3678;DHT22;1855;50.934;6.958;2022-10-16T00:13:57;14.60;92.10
3678;DHT22;1855;50.934;6.958;2022-10-16T00:16:24;14.60;92.10
3678;DHT22;1855;50.934;6.958;2022-10-16T00:18:51;14.60;92.00
3678;DHT22;1855;50.934;6.958;2022-10-16T00:21:20;14.60;91.80
3678;DHT22;1855;50.934;6.958;2022-10-16T00:23:50;14.60;91.90
3678;DHT22;1855;50.934;6.958;2022-10-16T00:26:19;14.60;91.90
3678;DHT22;1855;50.934;6.958;2022-10-16T00:28:46;14.60;91.90
3678;DHT22;1855;50.934;6.958;2022-10-16T00:31:14;14.60;92.00
3678;DHT22;1855;50.934;6.958;2022-10-16T00:33:41;14.60;91.70
3678;DHT22;1855;50.934;6.958;2022-10-16T00:36:10;14.60;91.70
3678;DHT22;1855;50.934;6.958;2022-10-16T00:38:38;14.50;91.70
3678;DHT22;1855;50.934;6.958;2022-10-16T00:41:05;14.50;91.80
3678;DHT22;1855;50.934;6.958;2022-10-16T00:43:37;14.50;91.80
3678;DHT22;1855;50.934;6.958;2022-10-16T00:46:08;14.50;92.10
3678;DHT22;1855;50.934;6.958;2022-10-16T00:48:36;14.50;91.90
3678;DHT22;1855;50.934;6.958;2022-10-16T00:51:04;14.50;91.80
3678;DHT22;1855;50.934;6.958;2022-10-16T00:53:32;14.40;91.80
3678;DHT22;1855;50.934;6.958;2022-10-16T00:55:59;14.40;92.00
3678;DHT22;1855;50.934;6.958;2022-10-16T00:58:26;14.40;91.90
3678;DHT22;1855;50.934;6.958;2022-10-16T01:00:54;14.40;91.80
3678;DHT22;1855;50.934;6.958;2022-10-16T01:03:27;14.40;91.90
3678;DHT22;1855;50.934;6.958;2022-10-16T01:06:06;14.40;91.80
3678;DHT22;1855;50.934;6.958;2022-10-16T01:08:46;14.40;91.80
3678;DHT22;1855;50.934;6.958;2022-10-16T01:11:21;14.40;91.80
3678;DHT22;1855;50.934;6.958;2022-10-16T01:13:54;14.40;91.70
3678;DHT22;1855;50.934;6.958;2022-10-16T01:16:29;14.30;91.70
3678;DHT22;1855;50.934;6.958;2022-10-16T01:19:03;14.30;91.90
3678;DHT22;1855;50.934;6.958;2022-10-16T01:21:33;14.30;92.30
3678;DHT22;1855;50.934;6.958;2022-10-16T01:24:06;14.20;92.30
3678;DHT22;1855;50.934;6.958;2022-10-16T01:26:46;14.20;92.10
3678;DHT22;1855;50.934;6.958;2022-10-16T01:29:21;14.20;92.30
3678;DHT22;1855;50.934;6.958;2022-10-16T01:31:55;14.20;92.10
3678;DHT22;1855;50.934;6.958;2022-10-16T01:34:29;14.20;92.40
3678;DHT22;1855;50.934;6.958;2022-10-16T01:37:04;14.20;92.20
3678;DHT22;1855;50.934;6.958;2022-10-16T01:39:34;14.20;92.20
3678;DHT22;1855;50.934;6.958;2022-10-16T01:42:06;14.20;92.20
3678;DHT22;1855;50.934;6.958;2022-10-16T01:44:36;14.20;92.20
3678;DHT22;1855;50.934;6.958;2022-10-16T01:47:04;14.20;92.20
3678;DHT22;1855;50.934;6.958;2022-10-16T01:49:33;14.20;92.00
3678;DHT22;1855;50.934;6.958;2022-10-16T01:52:05;14.10;92.10
3678;DHT22;1855;50.934;6.958;2022-10-16T01:54:34;14.10;92.10
3678;DHT22;1855;50.934;6.958;2022-10-16T01:57:02;14.10;92.10
3678;DHT22;1855;50.934;6.958;2022-10-16T01:59:32;14.20;91.90
3678;DHT22;1855;50.934;6.958;2022-10-16T02:02:04;14.20;91.90
3678;DHT22;1855;50.934;6.958;2022-10-16T02:04:36;14.20;92.00
3678;DHT22;1855;50.934;6.958;2022-10-16T02:07:05;14.20;91.90
3678;DHT22;1855;50.934;6.958;2022-10-16T02:09:33;14.20;92.50
3678;DHT22;1855;50.934;6.958;2022-10-16T02:12:03;14.20;92.00
3678;DHT22;1855;50.934;6.958;2022-10-16T02:14:32;14.20;91.70
3678;DHT22;1855;50.934;6.958;2022-10-16T02:17:00;14.30;91.40
3678;DHT22;1855;50.934;6.958;2022-10-16T02:19:27;14.30;91.30
3678;DHT22;1855;50.934;6.958;2022-10-16T02:21:55;14.40;90.90
3678;DHT22;1855;50.934;6.958;2022-10-16T02:24:30;14.40;91.10
3678;DHT22;1855;50.934;6.958;2022-10-16T02:27:05;14.40;91.20
3678;DHT22;1855;50.934;6.958;2022-10-16T02:29:35;14.30;91.30
3678;DHT22;1855;50.934;6.958;2022-10-16T02:32:07;14.30;91.10
3678;DHT22;1855;50.934;6.958;2022-10-16T02:34:36;14.30;91.10
3678;DHT22;1855;50.934;6.958;2022-10-16T02:37:05;14.30;91.30
3678;DHT22;1855;50.934;6.958;2022-10-16T02:39:32;14.40;90.80
3678;DHT22;1855;50.934;6.958;2022-10-16T02:42:00;14.40;90.40
3678;DHT22;1855;50.934;6.958;2022-10-16T02:44:26;14.40;90.70
3678;DHT22;1855;50.934;6.958;2022-10-16T02:46:53;14.40;90.40
3678;DHT22;1855;50.934;6.958;2022-10-16T02:49:21;14.50;90.60
3678;DHT22;1855;50.934;6.958;2022-10-16T02:51:48;14.50;90.00
3678;DHT22;1855;50.934;6.958;2022-10-16T02:54:15;14.50;90.10
3678;DHT22;1855;50.934;6.958;2022-10-16T02:56:41;14.50;90.30
3678;DHT22;1855;50.934;6.958;2022-10-16T02:59:08;14.40;90.40
3678;DHT22;1855;50.934;6.958;2022-10-16T03:01:35;14.50;90.10
3678;DHT22;1855;50.934;6.958;2022-10-16T03:04:02;14.40;90.10
3678;DHT22;1855;50.934;6.958;2022-10-16T03:06:30;14.50;90.20
3678;DHT22;1855;50.934;6.958;2022-10-16T03:08:57;14.50;89.70
3678;DHT22;1855;50.934;6.958;2022-10-16T03:11:24;14.50;89.90
3678;DHT22;1855;50.934;6.958;2022-10-16T03:13:51;14.40;89.10
3678;DHT22;1855;50.934;6.958;2022-10-16T03:16:18;14.40;88.70
3678;DHT22;1855;50.934;6.958;2022-10-16T03:18:47;14.40;89.40
3678;DHT22;1855;50.934;6.958;2022-10-16T03:21:14;14.30;90.10
3678;DHT22;1855;50.934;6.958;2022-10-16T03:23:42;14.30;90.50
3678;DHT22;1855;50.934;6.958;2022-10-16T03:26:09;14.20;90.60
3678;DHT22;1855;50.934;6.958;2022-10-16T03:28:36;14.20;90.70
3678;DHT22;1855;50.934;6.958;2022-10-16T03:31:03;14.20;90.00
3678;DHT22;1855;50.934;6.958;2022-10-16T03:33:29;14.20;90.20
3678;DHT22;1855;50.934;6.958;2022-10-16T03:35:56;14.20;90.10
3678;DHT22;1855;50.934;6.958;2022-10-16T03:38:23;14.20;90.20
3678;DHT22;1855;50.934;6.958;2022-10-16T03:40:51;14.20;90.20
3678;DHT22;1855;50.934;6.958;2022-10-16T03:43:18;14.20;90.20
3678;DHT22;1855;50.934;6.958;2022-10-16T03:45:45;14.20;89.70
3678;DHT22;1855;50.934;6.958;2022-10-16T03:48:11;14.30;89.40
3678;DHT22;1855;50.934;6.958;2022-10-16T03:50:38;14.30;89.30
3678;DHT22;1855;50.934;6.958;2022-10-16T03:53:05;14.30;89.60
3678;DHT22;1855;50.934;6.958;2022-10-16T03:55:32;14.30;89.90
3678;DHT22;1855;50.934;6.958;2022-10-16T03:58:00;14.30;89.50
3678;DHT22;1855;50.934;6.958;2022-10-16T04:00:28;14.40;89.20
3678;DHT22;1855;50.934;6.958;2022-10-16T04:02:55;14.30;89.50
3678;DHT22;1855;50.934;6.958;2022-10-16T04:05:21;14.30;89.60
3678;DHT22;1855;50.934;6.958;2022-10-16T04:07:49;14.30;90.00
3678;DHT22;1855;50.934;6.958;2022-10-16T04:10:16;14.30;89.50
3678;DHT22;1855;50.934;6.958;2022-10-16T04:12:42;14.30;89.50
3678;DHT22;1855;50.934;6.958;2022-10-16T04:15:11;14.30;89.90
3678;DHT22;1855;50.934;6.958;2022-10-16T04:17:37;14.30;89.70
3678;DHT22;1855;50.934;6.958;2022-10-16T04:20:05;14.30;90.10
3678;DHT22;1855;50.934;6.958;2022-10-16T04:22:32;14.30;89.70
3678;DHT22;1855;50.934;6.958;2022-10-16T04:24:59;14.40;89.80
3678;DHT22;1855;50.934;6.958;2022-10-16T04:27:25;14.40;89.70
3678;DHT22;1855;50.934;6.958;2022-10-16T04:29:53;14.40;89.50
3678;DHT22;1855;50.934;6.958;2022-10-16T04:32:21;14.40;89.90
3678;DHT22;1855;50.934;6.958;2022-10-16T04:34:48;14.40;89.80
3678;DHT22;1855;50.934;6.958;2022-10-16T04:37:15;14.40;90.00
3678;DHT22;1855;50.934;6.958;2022-10-16T04:39:42;14.40;90.10
3678;DHT22;1855;50.934;6.958;2022-10-16T04:42:09;14.40;90.10
3678;DHT22;1855;50.934;6.958;2022-10-16T04:44:35;14.40;90.00
3678;DHT22;1855;50.934;6.958;2022-10-16T04:47:02;14.30;90.10
3678;DHT22;1855;50.934;6.958;2022-10-16T04:49:31;14.30;90.20
3678;DHT22;1855;50.934;6.958;2022-10-16T04:51:58;14.30;90.40
3678;DHT22;1855;50.934;6.958;2022-10-16T04:54:24;14.30;90.40
3678;DHT22;1855;50.934;6.958;2022-10-16T04:56:51;14.30;90.40
3678;DHT22;1855;50.934;6.958;2022-10-16T04:59:19;14.30;90.50
3678;DHT22;1855;50.934;6.958;2022-10-16T05:01:46;14.30;90.80
3678;DHT22;1855;50.934;6.958;2022-10-16T05:04:13;14.30;90.80
3678;DHT22;1855;50.934;6.958;2022-10-16T05:06:42;14.30;90.70
3678;DHT22;1855;50.934;6.958;2022-10-16T05:09:09;14.40;90.80
3678;DHT22;1855;50.934;6.958;2022-10-16T05:11:35;14.40;90.60
3678;DHT22;1855;50.934;6.958;2022-10-16T05:14:02;14.50;90.60
3678;DHT22;1855;50.934;6.958;2022-10-16T05:16:29;14.40;90.90
3678;DHT22;1855;50.934;6.958;2022-10-16T05:18:56;14.40;91.00
3678;DHT22;1855;50.934;6.958;2022-10-16T05:21:23;14.40;91.20
3678;DHT22;1855;50.934;6.958;2022-10-16T05:23:52;14.30;91.40
3678;DHT22;1855;50.934;6.958;2022-10-16T05:26:19;14.40;91.40
3678;DHT22;1855;50.934;6.958;2022-10-16T05:28:46;14.40;91.40
3678;DHT22;1855;50.934;6.958;2022-10-16T05:31:13;14.40;91.60
3678;DHT22;1855;50.934;6.958;2022-10-16T05:33:40;14.30;91.70
3678;DHT22;1855;50.934;6.958;2022-10-16T05:36:08;14.40;91.50
3678;DHT22;1855;50.934;6.958;2022-10-16T05:38:35;14.40;91.40
3678;DHT22;1855;50.934;6.958;2022-10-16T05:41:04;14.50;91.40
3678;DHT22;1855;50.934;6.958;2022-10-16T05:43:32;14.50;91.20
3678;DHT22;1855;50.934;6.958;2022-10-16T05:46:00;14.50;91.40
3678;DHT22;1855;50.934;6.958;2022-10-16T05:48:27;14.40;91.50
3678;DHT22;1855;50.934;6.958;2022-10-16T05:50:58;14.40;91.40
3678;DHT22;1855;50.934;6.958;2022-10-16T05:53:25;14.40;91.80
3678;DHT22;1855;50.934;6.958;2022-10-16T05:55:53;14.30;91.90
3678;DHT22;1855;50.934;6.958;2022-10-16T05:58:21;14.20;92.00
3678;DHT22;1855;50.934;6.958;2022-10-16T06:00:55;14.20;92.30
3678;DHT22;1855;50.934;6.958;2022-10-16T06:03:22;14.20;92.50
3678;DHT22;1855;50.934;6.958;2022-10-16T06:05:49;14.10;92.50
3678;DHT22;1855;50.934;6.958;2022-10-16T06:08:17;14.10;92.40
3678;DHT22;1855;50.934;6.958;2022-10-16T06:10:44;14.10;92.60
3678;DHT22;1855;50.934;6.958;2022-10-16T06:13:11;14.10;92.80
3678;DHT22;1855;50.934;6.958;2022-10-16T06:15:40;14.00;93.10
3678;DHT22;1855;50.934;6.958;2022-10-16T06:18:08;14.00;93.00
3678;DHT22;1855;50.934;6.958;2022-10-16T06:20:35;14.00;93.10
3678;DHT22;1855;50.934;6.958;2022-10-16T06:23:02;13.90;93.10
3678;DHT22;1855;50.934;6.958;2022-10-16T06:25:29;14.00;93.30
3678;DHT22;1855;50.934;6.958;2022-10-16T06:27:56;14.00;93.40
3678;DHT22;1855;50.934;6.958;2022-10-16T06:30:23;13.90;93.40
3678;DHT22;1855;50.934;6.958;2022-10-16T06:32:51;14.00;93.40
3678;DHT22;1855;50.934;6.958;2022-10-16T06:35:18;14.00;93.30
3678;DHT22;1855;50.934;6.958;2022-10-16T06:37:45;14.10;93.30
3678;DHT22;1855;50.934;6.958;2022-10-16T06:40:11;14.10;93.20
3678;DHT22;1855;50.934;6.958;2022-10-16T06:42:40;14.20;93.10
3678;DHT22;1855;50.934;6.958;2022-10-16T06:45:07;14.20;93.00
3678;DHT22;1855;50.934;6.958;2022-10-16T06:47:34;14.20;92.90
3678;DHT22;1855;50.934;6.958;2022-10-16T06:50:02;14.30;92.60
3678;DHT22;1855;50.934;6.958;2022-10-16T06:52:32;14.40;92.40
3678;DHT22;1855;50.934;6.958;2022-10-16T06:54:59;14.50;92.40
3678;DHT22;1855;50.934;6.958;2022-10-16T06:57:25;14.50;92.30
3678;DHT22;1855;50.934;6.958;2022-10-16T06:59:52;14.60;92.20
3678;DHT22;1855;50.934;6.958;2022-10-16T07:02:19;14.70;91.80
3678;DHT22;1855;50.934;6.958;2022-10-16T07:04:54;14.70;91.60
3678;DHT22;1855;50.934;6.958;2022-10-16T07:07:23;14.80;91.40
3678;DHT22;1855;50.934;6.958;2022-10-16T07:09:52;14.80;91.40
3678;DHT22;1855;50.934;6.958;2022-10-16T07:12:19;14.80;91.50
3678;DHT22;1855;50.934;6.958;2022-10-16T07:14:45;14.90;91.50
3678;DHT22;1855;50.934;6.958;2022-10-16T07:17:12;15.00;91.20
3678;DHT22;1855;50.934;6.958;2022-10-16T07:19:39;15.00;91.10
3678;DHT22;1855;50.934;6.958;2022-10-16T07:22:05;15.00;91.20
3678;DHT22;1855;50.934;6.958;2022-10-16T07:24:34;15.10;91.10
3678;DHT22;1855;50.934;6.958;2022-10-16T07:27:00;15.20;91.30
3678;DHT22;1855;50.934;6.958;2022-10-16T07:29:27;15.30;90.60
3678;DHT22;1855;50.934;6.958;2022-10-16T07:31:54;15.30;90.50
3678;DHT22;1855;50.934;6.958;2022-10-16T07:34:21;15.30;90.50
3678;DHT22;1855;50.934;6.958;2022-10-16T07:36:48;15.40;90.10
3678;DHT22;1855;50.934;6.958;2022-10-16T07:39:15;15.40;89.50
3678;DHT22;1855;50.934;6.958;2022-10-16T07:41:43;15.40;90.00
3678;DHT22;1855;50.934;6.958;2022-10-16T07:44:10;15.40;90.10
3678;DHT22;1855;50.934;6.958;2022-10-16T07:46:37;15.40;90.30
3678;DHT22;1855;50.934;6.958;2022-10-16T07:49:04;15.40;90.10
3678;DHT22;1855;50.934;6.958;2022-10-16T07:51:30;15.50;89.20
3678;DHT22;1855;50.934;6.958;2022-10-16T07:53:57;15.60;89.20
3678;DHT22;1855;50.934;6.958;2022-10-16T07:56:24;15.60;89.00
3678;DHT22;1855;50.934;6.958;2022-10-16T07:58:52;15.70;89.00
3678;DHT22;1855;50.934;6.958;2022-10-16T08:01:19;15.90;87.60
3678;DHT22;1855;50.934;6.958;2022-10-16T08:03:48;16.10;87.50
3678;DHT22;1855;50.934;6.958;2022-10-16T08:06:15;16.20;86.80
3678;DHT22;1855;50.934;6.958;2022-10-16T08:08:42;16.30;86.00
3678;DHT22;1855;50.934;6.958;2022-10-16T08:11:09;16.40;85.90
3678;DHT22;1855;50.934;6.958;2022-10-16T08:13:36;16.50;85.40
3678;DHT22;1855;50.934;6.958;2022-10-16T08:16:05;16.60;85.10
3678;DHT22;1855;50.934;6.958;2022-10-16T08:18:33;16.80;84.10
3678;DHT22;1855;50.934;6.958;2022-10-16T08:21:01;17.10;83.30
3678;DHT22;1855;50.934;6.958;2022-10-16T08:23:28;17.40;80.90
3678;DHT22;1855;50.934;6.958;2022-10-16T08:25:55;17.70;79.10
3678;DHT22;1855;50.934;6.958;2022-10-16T08:28:23;18.10;77.30
3678;DHT22;1855;50.934;6.958;2022-10-16T08:30:50;18.30;75.30
3678;DHT22;1855;50.934;6.958;2022-10-16T08:33:18;18.50;75.50
3678;DHT22;1855;50.934;6.958;2022-10-16T08:35:50;18.70;74.30
3678;DHT22;1855;50.934;6.958;2022-10-16T08:38:18;18.90;74.50
3678;DHT22;1855;50.934;6.958;2022-10-16T08:40:45;19.10;71.20
3678;DHT22;1855;50.934;6.958;2022-10-16T08:43:26;19.10;71.20
3678;DHT22;1855;50.934;6.958;2022-10-16T08:46:21;19.20;70.60
3678;DHT22;1855;50.934;6.958;2022-10-16T08:48:53;19.30;70.20
3678;DHT22;1855;50.934;6.958;2022-10-16T08:51:23;19.60;69.40
3678;DHT22;1855;50.934;6.958;2022-10-16T08:53:53;19.90;68.30
3678;DHT22;1855;50.934;6.958;2022-10-16T08:56:21;20.20;67.70
3678;DHT22;1855;50.934;6.958;2022-10-16T08:58:48;20.50;65.30
3678;DHT22;1855;50.934;6.958;2022-10-16T09:01:19;20.70;64.30
3678;DHT22;1855;50.934;6.958;2022-10-16T09:04:05;20.70;64.40
3678;DHT22;1855;50.934;6.958;2022-10-16T09:06:43;20.50;64.30
3678;DHT22;1855;50.934;6.958;2022-10-16T09:09:28;20.40;64.00
3678;DHT22;1855;50.934;6.958;2022-10-16T09:12:02;20.40;64.40
3678;DHT22;1855;50.934;6.958;2022-10-16T09:14:49;20.60;64.20
3678;DHT22;1855;50.934;6.958;2022-10-16T09:17:33;20.90;63.10
3678;DHT22;1855;50.934;6.958;2022-10-16T09:20:18;21.20;60.80
3678;DHT22;1855;50.934;6.958;2022-10-16T09:22:46;21.20;59.70
3678;DHT22;1855;50.934;6.958;2022-10-16T09:25:15;21.30;59.80
3678;DHT22;1855;50.934;6.958;2022-10-16T09:27:43;21.50;60.10
3678;DHT22;1855;50.934;6.958;2022-10-16T09:30:13;21.70;58.00
3678;DHT22;1855;50.934;6.958;2022-10-16T09:32:49;22.00;58.00
3678;DHT22;1855;50.934;6.958;2022-10-16T09:35:20;22.20;57.20
3678;DHT22;1855;50.934;6.958;2022-10-16T09:37:48;22.00;57.10
3678;DHT22;1855;50.934;6.958;2022-10-16T09:40:25;22.10;56.70
3678;DHT22;1855;50.934;6.958;2022-10-16T09:43:02;22.20;56.30
3678;DHT22;1855;50.934;6.958;2022-10-16T09:45:29;22.30;54.50
3678;DHT22;1855;50.934;6.958;2022-10-16T09:47:56;22.20;52.60
3678;DHT22;1855;50.934;6.958;2022-10-16T09:50:26;22.10;55.20
3678;DHT22;1855;50.934;6.958;2022-10-16T09:53:10;22.30;53.50
3678;DHT22;1855;50.934;6.958;2022-10-16T09:55:48;22.20;53.50
3678;DHT22;1855;50.934;6.958;2022-10-16T09:58:15;22.40;53.10
3678;DHT22;1855;50.934;6.958;2022-10-16T10:00:49;22.50;52.80
3678;DHT22;1855;50.934;6.958;2022-10-16T10:03:34;22.70;51.80
3678;DHT22;1855;50.934;6.958;2022-10-16T10:06:14;22.60;50.70
3678;DHT22;1855;50.934;6.958;2022-10-16T10:09:03;22.40;52.30
3678;DHT22;1855;50.934;6.958;2022-10-16T10:11:38;22.30;52.80
3678;DHT22;1855;50.934;6.958;2022-10-16T10:14:05;22.50;52.10
3678;DHT22;1855;50.934;6.958;2022-10-16T10:16:32;22.30;51.30
3678;DHT22;1855;50.934;6.958;2022-10-16T10:18:59;22.10;51.50
3678;DHT22;1855;50.934;6.958;2022-10-16T10:21:27;21.70;51.90
3678;DHT22;1855;50.934;6.958;2022-10-16T10:23:57;21.30;52.90
3678;DHT22;1855;50.934;6.958;2022-10-16T10:26:27;21.20;53.60
3678;DHT22;1855;50.934;6.958;2022-10-16T10:28:58;21.70;54.60
3678;DHT22;1855;50.934;6.958;2022-10-16T10:31:36;22.30;53.60
3678;DHT22;1855;50.934;6.958;2022-10-16T10:34:13;22.70;51.30
3678;DHT22;1855;50.934;6.958;2022-10-16T10:36:51;22.80;51.40
3678;DHT22;1855;50.934;6.958;2022-10-16T10:39:25;22.50;50.70
3678;DHT22;1855;50.934;6.958;2022-10-16T10:42:12;22.10;51.80
3678;DHT22;1855;50.934;6.958;2022-10-16T10:44:58;21.70;55.30
3678;DHT22;1855;50.934;6.958;2022-10-16T10:47:34;21.70;52.60
3678;DHT22;1855;50.934;6.958;2022-10-16T10:50:13;21.60;53.50
3678;DHT22;1855;50.934;6.958;2022-10-16T10:52:55;21.60;54.30
3678;DHT22;1855;50.934;6.958;2022-10-16T10:55:29;21.70;53.80
3678;DHT22;1855;50.934;6.958;2022-10-16T10:58:42;22.00;54.10
3678;DHT22;1855;50.934;6.958;2022-10-16T11:01:13;22.50;51.50
3678;DHT22;1855;50.934;6.958;2022-10-16T11:04:00;22.90;50.80
3678;DHT22;1855;50.934;6.958;2022-10-16T11:06:33;23.20;49.50
3678;DHT22;1855;50.934;6.958;2022-10-16T11:09:08;23.10;48.10
3678;DHT22;1855;50.934;6.958;2022-10-16T11:11:40;22.80;49.30
3678;DHT22;1855;50.934;6.958;2022-10-16T11:14:14;22.70;49.00
3678;DHT22;1855;50.934;6.958;2022-10-16T11:16:48;22.60;49.40
3678;DHT22;1855;50.934;6.958;2022-10-16T11:19:27;22.50;50.20
3678;DHT22;1855;50.934;6.958;2022-10-16T11:22:01;22.40;49.10
3678;DHT22;1855;50.934;6.958;2022-10-16T11:24:36;22.50;50.00
3678;DHT22;1855;50.934;6.958;2022-10-16T11:27:09;22.90;49.00
3678;DHT22;1855;50.934;6.958;2022-10-16T11:29:45;23.20;49.10
3678;DHT22;1855;50.934;6.958;2022-10-16T11:32:20;23.30;47.50
3678;DHT22;1855;50.934;6.958;2022-10-16T11:34:51;23.70;46.90
3678;DHT22;1855;50.934;6.958;2022-10-16T11:37:21;23.40;46.00
3678;DHT22;1855;50.934;6.958;2022-10-16T11:39:52;23.00;48.20
3678;DHT22;1855;50.934;6.958;2022-10-16T11:42:29;22.80;48.00
3678;DHT22;1855;50.934;6.958;2022-10-16T11:45:02;22.60;49.00
3678;DHT22;1855;50.934;6.958;2022-10-16T11:47:34;22.40;48.60
3678;DHT22;1855;50.934;6.958;2022-10-16T11:50:04;22.30;49.30
3678;DHT22;1855;50.934;6.958;2022-10-16T11:52:40;22.30;50.00
3678;DHT22;1855;50.934;6.958;2022-10-16T11:55:16;22.30;50.70
3678;DHT22;1855;50.934;6.958;2022-10-16T11:57:46;22.40;49.80
3678;DHT22;1855;50.934;6.958;2022-10-16T12:00:21;22.50;49.80
3678;DHT22;1855;50.934;6.958;2022-10-16T12:02:55;22.40;49.10
3678;DHT22;1855;50.934;6.958;2022-10-16T12:05:29;22.50;49.50
3678;DHT22;1855;50.934;6.958;2022-10-16T12:08:06;22.50;48.80
3678;DHT22;1855;50.934;6.958;2022-10-16T12:10:36;22.50;49.20
3678;DHT22;1855;50.934;6.958;2022-10-16T12:13:04;22.50;48.90
3678;DHT22;1855;50.934;6.958;2022-10-16T12:15:32;22.60;47.90
3678;DHT22;1855;50.934;6.958;2022-10-16T12:18:00;22.60;48.30
3678;DHT22;1855;50.934;6.958;2022-10-16T12:20:28;22.60;47.60
3678;DHT22;1855;50.934;6.958;2022-10-16T12:22:59;22.60;48.60
3678;DHT22;1855;50.934;6.958;2022-10-16T12:25:28;22.50;48.10
3678;DHT22;1855;50.934;6.958;2022-10-16T12:28:00;22.30;48.50
3678;DHT22;1855;50.934;6.958;2022-10-16T12:30:29;22.20;49.00
3678;DHT22;1855;50.934;6.958;2022-10-16T12:32:58;22.20;49.20
3678;DHT22;1855;50.934;6.958;2022-10-16T12:35:27;22.20;49.00
3678;DHT22;1855;50.934;6.958;2022-10-16T12:38:05;22.20;49.80
3678;DHT22;1855;50.934;6.958;2022-10-16T12:40:34;22.40;49.40
3678;DHT22;1855;50.934;6.958;2022-10-16T12:43:25;22.90;48.20
3678;DHT22;1855;50.934;6.958;2022-10-16T12:46:04;23.60;47.40
3678;DHT22;1855;50.934;6.958;2022-10-16T12:48:31;24.00;45.30
3678;DHT22;1855;50.934;6.958;2022-10-16T12:51:09;23.90;44.50
3678;DHT22;1855;50.934;6.958;2022-10-16T12:53:36;23.60;45.80
3678;DHT22;1855;50.934;6.958;2022-10-16T12:56:09;23.60;46.70
3678;DHT22;1855;50.934;6.958;2022-10-16T12:58:55;23.50;46.90
3678;DHT22;1855;50.934;6.958;2022-10-16T13:01:34;23.30;46.60
3678;DHT22;1855;50.934;6.958;2022-10-16T13:04:29;23.10;47.10
3678;DHT22;1855;50.934;6.958;2022-10-16T13:07:06;22.80;47.50
3678;DHT22;1855;50.934;6.958;2022-10-16T13:09:50;22.60;48.40
3678;DHT22;1855;50.934;6.958;2022-10-16T13:12:31;22.40;48.90
3678;DHT22;1855;50.934;6.958;2022-10-16T13:15:18;22.20;49.50
3678;DHT22;1855;50.934;6.958;2022-10-16T13:17:53;22.20;49.20
3678;DHT22;1855;50.934;6.958;2022-10-16T13:20:26;22.10;49.70
3678;DHT22;1855;50.934;6.958;2022-10-16T13:23:04;22.00;50.60
3678;DHT22;1855;50.934;6.958;2022-10-16T13:25:40;21.90;50.10
3678;DHT22;1855;50.934;6.958;2022-10-16T13:28:11;21.80;51.00
3678;DHT22;1855;50.934;6.958;2022-10-16T13:30:41;21.70;51.00
3678;DHT22;1855;50.934;6.958;2022-10-16T13:33:14;21.70;52.00
3678;DHT22;1855;50.934;6.958;2022-10-16T13:35:49;21.70;51.60
3678;DHT22;1855;50.934;6.958;2022-10-16T13:38:18;21.60;51.90
3678;DHT22;1855;50.934;6.958;2022-10-16T13:40:50;21.60;52.10
3678;DHT22;1855;50.934;6.958;2022-10-16T13:43:18;21.70;51.60
3678;DHT22;1855;50.934;6.958;2022-10-16T13:45:55;21.70;52.10
3678;DHT22;1855;50.934;6.958;2022-10-16T13:48:22;21.80;51.80
3678;DHT22;1855;50.934;6.958;2022-10-16T13:50:59;21.80;50.30
3678;DHT22;1855;50.934;6.958;2022-10-16T13:53:25;21.80;50.70
3678;DHT22;1855;50.934;6.958;2022-10-16T13:55:52;21.80;51.00
3678;DHT22;1855;50.934;6.958;2022-10-16T13:58:19;22.00;51.30
3678;DHT22;1855;50.934;6.958;2022-10-16T14:00:56;22.10;51.20
3678;DHT22;1855;50.934;6.958;2022-10-16T14:03:24;22.10;52.00
3678;DHT22;1855;50.934;6.958;2022-10-16T14:05:52;22.00;51.90
3678;DHT22;1855;50.934;6.958;2022-10-16T14:08:20;21.80;51.40
3678;DHT22;1855;50.934;6.958;2022-10-16T14:10:48;21.80;52.40
3678;DHT22;1855;50.934;6.958;2022-10-16T14:13:18;21.50;53.00
3678;DHT22;1855;50.934;6.958;2022-10-16T14:15:47;21.40;53.30
3678;DHT22;1855;50.934;6.958;2022-10-16T14:18:20;21.30;53.90
3678;DHT22;1855;50.934;6.958;2022-10-16T14:20:49;21.30;53.70
3678;DHT22;1855;50.934;6.958;2022-10-16T14:23:21;21.20;54.30
3678;DHT22;1855;50.934;6.958;2022-10-16T14:25:49;21.10;54.70
3678;DHT22;1855;50.934;6.958;2022-10-16T14:28:17;21.00;54.50
3678;DHT22;1855;50.934;6.958;2022-10-16T14:30:52;21.00;56.10
3678;DHT22;1855;50.934;6.958;2022-10-16T14:33:23;21.00;55.80
3678;DHT22;1855;50.934;6.958;2022-10-16T14:36:01;20.90;56.10
3678;DHT22;1855;50.934;6.958;2022-10-16T14:38:29;20.90;56.40
3678;DHT22;1855;50.934;6.958;2022-10-16T14:40:57;20.90;56.70
3678;DHT22;1855;50.934;6.958;2022-10-16T14:43:30;20.90;57.10
3678;DHT22;1855;50.934;6.958;2022-10-16T14:45:58;20.90;57.60
3678;DHT22;1855;50.934;6.958;2022-10-16T14:48:27;20.80;57.80
3678;DHT22;1855;50.934;6.958;2022-10-16T14:50:54;20.90;57.70
3678;DHT22;1855;50.934;6.958;2022-10-16T14:53:21;20.90;58.20
3678;DHT22;1855;50.934;6.958;2022-10-16T14:55:48;20.80;57.80
3678;DHT22;1855;50.934;6.958;2022-10-16T14:58:17;20.80;58.40
3678;DHT22;1855;50.934;6.958;2022-10-16T15:00:44;20.80;58.40
3678;DHT22;1855;50.934;6.958;2022-10-16T15:03:11;20.70;58.70
3678;DHT22;1855;50.934;6.958;2022-10-16T15:05:39;20.60;59.30
3678;DHT22;1855;50.934;6.958;2022-10-16T15:08:06;20.60;60.00
3678;DHT22;1855;50.934;6.958;2022-10-16T15:10:38;20.50;60.30
3678;DHT22;1855;50.934;6.958;2022-10-16T15:13:06;20.40;60.30
3678;DHT22;1855;50.934;6.958;2022-10-16T15:15:35;20.40;60.80
3678;DHT22;1855;50.934;6.958;2022-10-16T15:18:03;20.40;61.30
3678;DHT22;1855;50.934;6.958;2022-10-16T15:20:33;20.40;61.90
3678;DHT22;1855;50.934;6.958;2022-10-16T15:23:02;20.40;63.10
3678;DHT22;1855;50.934;6.958;2022-10-16T15:25:34;20.30;62.10
3678;DHT22;1855;50.934;6.958;2022-10-16T15:28:03;20.30;62.20
3678;DHT22;1855;50.934;6.958;2022-10-16T15:30:30;20.30;62.50
3678;DHT22;1855;50.934;6.958;2022-10-16T15:32:57;20.20;63.40
3678;DHT22;1855;50.934;6.958;2022-10-16T15:35:24;20.20;63.70
3678;DHT22;1855;50.934;6.958;2022-10-16T15:37:51;20.20;63.40
3678;DHT22;1855;50.934;6.958;2022-10-16T15:40:20;20.10;63.50
3678;DHT22;1855;50.934;6.958;2022-10-16T15:42:48;20.10;63.80
3678;DHT22;1855;50.934;6.958;2022-10-16T15:45:15;20.00;64.20
3678;DHT22;1855;50.934;6.958;2022-10-16T15:47:43;20.00;64.30
3678;DHT22;1855;50.934;6.958;2022-10-16T15:50:10;19.90;64.70
3678;DHT22;1855;50.934;6.958;2022-10-16T15:52:38;19.90;64.90
3678;DHT22;1855;50.934;6.958;2022-10-16T15:55:06;19.80;65.30
3678;DHT22;1855;50.934;6.958;2022-10-16T15:57:34;19.80;65.80
3678;DHT22;1855;50.934;6.958;2022-10-16T16:00:05;19.70;66.90
3678;DHT22;1855;50.934;6.958;2022-10-16T16:02:32;19.60;66.00
3678;DHT22;1855;50.934;6.958;2022-10-16T16:04:58;19.60;66.30
3678;DHT22;1855;50.934;6.958;2022-10-16T16:07:25;19.60;66.50
3678;DHT22;1855;50.934;6.958;2022-10-16T16:09:52;19.60;66.60
3678;DHT22;1855;50.934;6.958;2022-10-16T16:12:19;19.60;67.40
3678;DHT22;1855;50.934;6.958;2022-10-16T16:14:47;19.50;67.30
3678;DHT22;1855;50.934;6.958;2022-10-16T16:17:14;19.50;67.60
3678;DHT22;1855;50.934;6.958;2022-10-16T16:19:41;19.40;67.90
3678;DHT22;1855;50.934;6.958;2022-10-16T16:22:08;19.40;68.30